sensor_id;sensor_type;location;lat;lon;timestamp;temperature;humidity
45096;DHT22;30858;51.108;8.068;2023-05-02T00:02:18;7.60;99.90
45096;DHT22;30858;51.108;8.068;2023-05-02T00:04:44;7.60;99.90
45096;DHT22;30858;51.108;8.068;2023-05-02T00:07:10;7.60;99.90
45096;DHT22;30858;51.108;8.068;2023-05-02T00:09:36;7.60;99.90
45096;DHT22;30858;51.108;8.068;2023-05-02T00:12:01;7.50;99.90
45096;DHT22;30858;51.108;8.068;2023-05-02T00:14:27;7.50;99.90
45096;DHT22;30858;51.108;8.068;2023-05-02T00:16:53;7.60;99.90
45096;DHT22;30858;51.108;8.068;2023-05-02T00:19:19;7.60;99.90
45096;DHT22;30858;51.108;8.068;2023-05-02T00:21:47;7.50;99.90
45096;DHT22;30858;51.108;8.068;2023-05-02T00:24:14;7.50;99.90
45096;DHT22;30858;51.108;8.068;2023-05-02T00:26:40;7.50;99.90
45096;DHT22;30858;51.108;8.068;2023-05-02T00:29:05;7.50;99.90
45096;DHT22;30858;51.108;8.068;2023-05-02T00:31:32;7.50;99.90
45096;DHT22;30858;51.108;8.068;2023-05-02T00:33:57;7.50;99.90
45096;DHT22;30858;51.108;8.068;2023-05-02T00:36:23;7.50;99.90
45096;DHT22;30858;51.108;8.068;2023-05-02T00:38:48;7.50;99.90
45096;DHT22;30858;51.108;8.068;2023-05-02T00:41:16;7.50;99.90
45096;DHT22;30858;51.108;8.068;2023-05-02T00:43:41;7.50;99.90
45096;DHT22;30858;51.108;8.068;2023-05-02T00:46:07;7.50;99.90
45096;DHT22;30858;51.108;8.068;2023-05-02T00:48:33;7.30;99.90
45096;DHT22;30858;51.108;8.068;2023-05-02T00:51:02;7.30;99.90
45096;DHT22;30858;51.108;8.068;2023-05-02T00:53:29;7.30;99.90
45096;DHT22;30858;51.108;8.068;2023-05-02T00:55:57;7.40;99.90
45096;DHT22;30858;51.108;8.068;2023-05-02T00:58:23;7.40;99.90
45096;DHT22;30858;51.108;8.068;2023-05-02T01:01:02;7.40;99.90
45096;DHT22;30858;51.108;8.068;2023-05-02T01:03:54;7.40;99.90
45096;DHT22;30858;51.108;8.068;2023-05-02T01:09:41;7.30;99.90
45096;DHT22;30858;51.108;8.068;2023-05-02T01:12:30;7.20;99.90
45096;DHT22;30858;51.108;8.068;2023-05-02T01:14:57;7.20;99.90
45096;DHT22;30858;51.108;8.068;2023-05-02T01:17:29;7.20;99.90
45096;DHT22;30858;51.108;8.068;2023-05-02T01:19:57;7.10;99.90
45096;DHT22;30858;51.108;8.068;2023-05-02T01:22:25;7.20;99.90
45096;DHT22;30858;51.108;8.068;2023-05-02T01:30:07;7.10;99.90
45096;DHT22;30858;51.108;8.068;2023-05-02T01:32:36;7.10;99.90
45096;DHT22;30858;51.108;8.068;2023-05-02T01:35:04;7.00;99.90
45096;DHT22;30858;51.108;8.068;2023-05-02T01:37:31;7.00;99.90
45096;DHT22;30858;51.108;8.068;2023-05-02T01:39:59;7.00;99.90
45096;DHT22;30858;51.108;8.068;2023-05-02T01:42:28;7.00;99.90
45096;DHT22;30858;51.108;8.068;2023-05-02T01:44:55;7.00;99.90
45096;DHT22;30858;51.108;8.068;2023-05-02T01:47:21;7.00;99.90
45096;DHT22;30858;51.108;8.068;2023-05-02T01:49:49;7.00;99.90
45096;DHT22;30858;51.108;8.068;2023-05-02T01:52:15;7.10;99.90
45096;DHT22;30858;51.108;8.068;2023-05-02T01:54:41;7.00;99.90
45096;DHT22;30858;51.108;8.068;2023-05-02T01:57:08;7.00;99.90
45096;DHT22;30858;51.108;8.068;2023-05-02T01:59:36;7.10;99.90
45096;DHT22;30858;51.108;8.068;2023-05-02T02:02:02;7.10;99.90
45096;DHT22;30858;51.108;8.068;2023-05-02T02:04:29;7.10;99.90
45096;DHT22;30858;51.108;8.068;2023-05-02T02:07:01;7.10;99.90
45096;DHT22;30858;51.108;8.068;2023-05-02T02:09:28;7.10;99.90
45096;DHT22;30858;51.108;8.068;2023-05-02T02:12:16;7.10;99.90
45096;DHT22;30858;51.108;8.068;2023-05-02T02:14:47;7.20;99.90
45096;DHT22;30858;51.108;8.068;2023-05-02T02:17:21;7.20;99.90
45096;DHT22;30858;51.108;8.068;2023-05-02T02:19:50;7.20;99.90
45096;DHT22;30858;51.108;8.068;2023-05-02T02:22:19;7.10;99.90
45096;DHT22;30858;51.108;8.068;2023-05-02T02:24:46;7.20;99.90
45096;DHT22;30858;51.108;8.068;2023-05-02T02:27:13;7.20;99.90
45096;DHT22;30858;51.108;8.068;2023-05-02T02:29:38;7.20;99.90
45096;DHT22;30858;51.108;8.068;2023-05-02T02:32:04;7.20;99.90
45096;DHT22;30858;51.108;8.068;2023-05-02T02:34:30;7.20;99.90
45096;DHT22;30858;51.108;8.068;2023-05-02T02:37:24;7.20;99.90
45096;DHT22;30858;51.108;8.068;2023-05-02T02:40:07;7.20;99.90
45096;DHT22;30858;51.108;8.068;2023-05-02T02:42:38;7.10;99.90
45096;DHT22;30858;51.108;8.068;2023-05-02T02:45:34;7.20;99.90
45096;DHT22;30858;51.108;8.068;2023-05-02T02:48:27;7.20;99.90
45096;DHT22;30858;51.108;8.068;2023-05-02T02:54:12;7.20;99.90
45096;DHT22;30858;51.108;8.068;2023-05-02T02:56:41;7.30;99.90
45096;DHT22;30858;51.108;8.068;2023-05-02T02:59:28;7.30;99.90
45096;DHT22;30858;51.108;8.068;2023-05-02T03:02:08;7.30;99.90
45096;DHT22;30858;51.108;8.068;2023-05-02T03:04:40;7.20;99.90
45096;DHT22;30858;51.108;8.068;2023-05-02T03:07:07;7.30;99.90
45096;DHT22;30858;51.108;8.068;2023-05-02T03:09:44;7.30;99.90
45096;DHT22;30858;51.108;8.068;2023-05-02T03:12:10;7.40;99.90
45096;DHT22;30858;51.108;8.068;2023-05-02T03:14:36;7.40;99.90
45096;DHT22;30858;51.108;8.068;2023-05-02T03:17:02;7.30;99.90
45096;DHT22;30858;51.108;8.068;2023-05-02T03:19:28;7.30;99.90
45096;DHT22;30858;51.108;8.068;2023-05-02T03:21:53;7.30;99.90
45096;DHT22;30858;51.108;8.068;2023-05-02T03:24:19;7.40;99.90
45096;DHT22;30858;51.108;8.068;2023-05-02T03:26:45;7.40;99.90
45096;DHT22;30858;51.108;8.068;2023-05-02T03:29:12;7.40;99.90
45096;DHT22;30858;51.108;8.068;2023-05-02T03:31:37;7.40;99.90
45096;DHT22;30858;51.108;8.068;2023-05-02T03:34:03;7.40;99.90
45096;DHT22;30858;51.108;8.068;2023-05-02T03:36:28;7.50;99.90
45096;DHT22;30858;51.108;8.068;2023-05-02T03:38:54;7.50;99.90
45096;DHT22;30858;51.108;8.068;2023-05-02T03:41:20;7.50;99.90
45096;DHT22;30858;51.108;8.068;2023-05-02T03:43:45;7.50;99.90
45096;DHT22;30858;51.108;8.068;2023-05-02T03:46:11;7.60;99.90
45096;DHT22;30858;51.108;8.068;2023-05-02T03:48:37;7.60;99.90
45096;DHT22;30858;51.108;8.068;2023-05-02T03:51:04;7.60;99.90
45096;DHT22;30858;51.108;8.068;2023-05-02T03:53:31;7.60;99.90
45096;DHT22;30858;51.108;8.068;2023-05-02T03:55:57;7.70;99.90
45096;DHT22;30858;51.108;8.068;2023-05-02T03:58:23;7.70;99.90
45096;DHT22;30858;51.108;8.068;2023-05-02T04:00:50;7.70;99.90
45096;DHT22;30858;51.108;8.068;2023-05-02T04:03:17;7.70;99.90
45096;DHT22;30858;51.108;8.068;2023-05-02T04:05:42;7.70;99.90
45096;DHT22;30858;51.108;8.068;2023-05-02T04:08:08;7.80;99.90
45096;DHT22;30858;51.108;8.068;2023-05-02T04:10:34;7.80;99.90
45096;DHT22;30858;51.108;8.068;2023-05-02T04:13:00;7.70;99.90
45096;DHT22;30858;51.108;8.068;2023-05-02T04:15:27;7.70;99.90
45096;DHT22;30858;51.108;8.068;2023-05-02T04:17:53;7.80;99.90
45096;DHT22;30858;51.108;8.068;2023-05-02T04:20:18;7.80;99.90
45096;DHT22;30858;51.108;8.068;2023-05-02T04:22:44;7.80;99.90
45096;DHT22;30858;51.108;8.068;2023-05-02T04:25:12;7.80;99.90
45096;DHT22;30858;51.108;8.068;2023-05-02T04:27:38;7.80;99.90
45096;DHT22;30858;51.108;8.068;2023-05-02T04:30:04;7.90;99.90
45096;DHT22;30858;51.108;8.068;2023-05-02T04:32:30;7.90;99.90
45096;DHT22;30858;51.108;8.068;2023-05-02T04:34:55;7.90;99.90
45096;DHT22;30858;51.108;8.068;2023-05-02T04:37:21;7.90;99.90
45096;DHT22;30858;51.108;8.068;2023-05-02T04:39:47;8.00;99.90
45096;DHT22;30858;51.108;8.068;2023-05-02T04:42:12;8.00;99.90
45096;DHT22;30858;51.108;8.068;2023-05-02T04:44:38;8.10;99.90
45096;DHT22;30858;51.108;8.068;2023-05-02T04:47:03;8.20;99.90
45096;DHT22;30858;51.108;8.068;2023-05-02T04:49:30;8.10;99.90
45096;DHT22;30858;51.108;8.068;2023-05-02T04:51:56;8.10;99.90
45096;DHT22;30858;51.108;8.068;2023-05-02T04:54:22;8.20;99.90
45096;DHT22;30858;51.108;8.068;2023-05-02T04:56:47;8.30;99.90
45096;DHT22;30858;51.108;8.068;2023-05-02T04:59:13;8.40;99.90
45096;DHT22;30858;51.108;8.068;2023-05-02T05:01:39;8.60;99.90
45096;DHT22;30858;51.108;8.068;2023-05-02T05:04:04;8.60;99.90
45096;DHT22;30858;51.108;8.068;2023-05-02T05:06:30;8.70;99.90
45096;DHT22;30858;51.108;8.068;2023-05-02T05:08:56;8.70;99.90
45096;DHT22;30858;51.108;8.068;2023-05-02T05:11:21;8.80;99.90
45096;DHT22;30858;51.108;8.068;2023-05-02T05:13:47;8.80;99.90
45096;DHT22;30858;51.108;8.068;2023-05-02T05:16:13;9.00;99.90
45096;DHT22;30858;51.108;8.068;2023-05-02T05:18:38;9.00;99.90
45096;DHT22;30858;51.108;8.068;2023-05-02T05:21:08;9.00;99.90
45096;DHT22;30858;51.108;8.068;2023-05-02T05:23:34;9.10;99.90
45096;DHT22;30858;51.108;8.068;2023-05-02T05:26:10;9.20;99.90
45096;DHT22;30858;51.108;8.068;2023-05-02T05:28:36;9.20;99.90
45096;DHT22;30858;51.108;8.068;2023-05-02T05:31:06;9.30;99.90
45096;DHT22;30858;51.108;8.068;2023-05-02T05:33:32;9.30;99.90
45096;DHT22;30858;51.108;8.068;2023-05-02T05:36:09;9.30;99.90
45096;DHT22;30858;51.108;8.068;2023-05-02T05:38:35;9.30;99.90
45096;DHT22;30858;51.108;8.068;2023-05-02T05:41:01;9.30;99.90
45096;DHT22;30858;51.108;8.068;2023-05-02T05:43:27;9.30;99.90
45096;DHT22;30858;51.108;8.068;2023-05-02T05:45:53;9.30;99.90
45096;DHT22;30858;51.108;8.068;2023-05-02T05:48:19;9.30;99.90
45096;DHT22;30858;51.108;8.068;2023-05-02T05:50:45;9.40;99.90
45096;DHT22;30858;51.108;8.068;2023-05-02T05:53:11;9.40;99.90
45096;DHT22;30858;51.108;8.068;2023-05-02T05:55:36;9.40;99.90
45096;DHT22;30858;51.108;8.068;2023-05-02T05:58:05;9.40;99.90
45096;DHT22;30858;51.108;8.068;2023-05-02T06:00:34;9.40;99.90
45096;DHT22;30858;51.108;8.068;2023-05-02T06:03:00;9.40;99.90
45096;DHT22;30858;51.108;8.068;2023-05-02T06:05:26;9.30;99.90
45096;DHT22;30858;51.108;8.068;2023-05-02T06:07:51;9.40;99.90
45096;DHT22;30858;51.108;8.068;2023-05-02T06:10:17;9.40;99.90
45096;DHT22;30858;51.108;8.068;2023-05-02T06:12:42;9.40;99.90
45096;DHT22;30858;51.108;8.068;2023-05-02T06:15:08;9.30;99.90
45096;DHT22;30858;51.108;8.068;2023-05-02T06:17:34;9.30;99.90
45096;DHT22;30858;51.108;8.068;2023-05-02T06:19:59;9.30;99.90
45096;DHT22;30858;51.108;8.068;2023-05-02T06:22:24;9.30;99.90
45096;DHT22;30858;51.108;8.068;2023-05-02T06:24:50;9.30;99.90
45096;DHT22;30858;51.108;8.068;2023-05-02T06:27:16;9.20;99.90
45096;DHT22;30858;51.108;8.068;2023-05-02T06:29:41;9.20;99.90
45096;DHT22;30858;51.108;8.068;2023-05-02T06:32:07;9.20;99.90
45096;DHT22;30858;51.108;8.068;2023-05-02T06:34:32;9.20;99.90
45096;DHT22;30858;51.108;8.068;2023-05-02T06:36:58;9.20;99.90
45096;DHT22;30858;51.108;8.068;2023-05-02T06:39:24;9.20;99.90
45096;DHT22;30858;51.108;8.068;2023-05-02T06:41:49;9.20;99.90
45096;DHT22;30858;51.108;8.068;2023-05-02T06:44:15;9.40;99.90
45096;DHT22;30858;51.108;8.068;2023-05-02T06:46:41;9.40;99.90
45096;DHT22;30858;51.108;8.068;2023-05-02T06:49:06;9.50;99.90
45096;DHT22;30858;51.108;8.068;2023-05-02T06:51:32;9.50;99.90
45096;DHT22;30858;51.108;8.068;2023-05-02T06:53:57;9.60;99.90
45096;DHT22;30858;51.108;8.068;2023-05-02T06:56:23;9.70;99.90
45096;DHT22;30858;51.108;8.068;2023-05-02T06:58:52;9.70;99.90
45096;DHT22;30858;51.108;8.068;2023-05-02T07:01:18;9.80;99.90
45096;DHT22;30858;51.108;8.068;2023-05-02T07:03:45;9.80;99.90
45096;DHT22;30858;51.108;8.068;2023-05-02T07:06:10;9.80;99.90
45096;DHT22;30858;51.108;8.068;2023-05-02T07:08:36;9.80;99.90
45096;DHT22;30858;51.108;8.068;2023-05-02T07:11:02;9.80;99.90
45096;DHT22;30858;51.108;8.068;2023-05-02T07:13:27;9.80;99.90
45096;DHT22;30858;51.108;8.068;2023-05-02T07:15:53;9.80;99.90
45096;DHT22;30858;51.108;8.068;2023-05-02T07:18:19;9.80;99.90
45096;DHT22;30858;51.108;8.068;2023-05-02T07:20:45;9.80;99.90
45096;DHT22;30858;51.108;8.068;2023-05-02T07:23:11;9.90;99.90
45096;DHT22;30858;51.108;8.068;2023-05-02T07:25:36;10.00;99.90
45096;DHT22;30858;51.108;8.068;2023-05-02T07:28:02;10.00;99.90
45096;DHT22;30858;51.108;8.068;2023-05-02T07:30:27;10.10;99.90
45096;DHT22;30858;51.108;8.068;2023-05-02T07:32:53;10.10;99.90
45096;DHT22;30858;51.108;8.068;2023-05-02T07:35:18;10.20;99.90
45096;DHT22;30858;51.108;8.068;2023-05-02T07:37:44;10.30;99.90
45096;DHT22;30858;51.108;8.068;2023-05-02T07:40:10;10.30;99.90
45096;DHT22;30858;51.108;8.068;2023-05-02T07:42:35;10.40;99.90
45096;DHT22;30858;51.108;8.068;2023-05-02T07:45:01;10.30;99.90
45096;DHT22;30858;51.108;8.068;2023-05-02T07:47:27;10.20;99.90
45096;DHT22;30858;51.108;8.068;2023-05-02T07:49:54;10.20;99.90
45096;DHT22;30858;51.108;8.068;2023-05-02T07:52:20;10.10;99.90
45096;DHT22;30858;51.108;8.068;2023-05-02T07:54:49;10.10;99.90
45096;DHT22;30858;51.108;8.068;2023-05-02T07:57:15;10.00;99.90
45096;DHT22;30858;51.108;8.068;2023-05-02T07:59:40;9.90;99.90
45096;DHT22;30858;51.108;8.068;2023-05-02T08:02:06;9.90;99.90
45096;DHT22;30858;51.108;8.068;2023-05-02T08:04:32;9.90;99.90
45096;DHT22;30858;51.108;8.068;2023-05-02T08:06:58;9.90;99.90
45096;DHT22;30858;51.108;8.068;2023-05-02T08:09:23;10.00;99.90
45096;DHT22;30858;51.108;8.068;2023-05-02T08:11:49;9.90;99.90
45096;DHT22;30858;51.108;8.068;2023-05-02T08:14:15;10.00;99.90
45096;DHT22;30858;51.108;8.068;2023-05-02T08:16:41;9.90;99.90
45096;DHT22;30858;51.108;8.068;2023-05-02T08:19:06;9.90;99.90
45096;DHT22;30858;51.108;8.068;2023-05-02T08:21:32;9.80;99.90
45096;DHT22;30858;51.108;8.068;2023-05-02T08:23:59;9.70;99.90
45096;DHT22;30858;51.108;8.068;2023-05-02T08:26:25;9.70;99.90
45096;DHT22;30858;51.108;8.068;2023-05-02T08:28:51;9.70;99.90
45096;DHT22;30858;51.108;8.068;2023-05-02T08:31:16;9.70;99.90
45096;DHT22;30858;51.108;8.068;2023-05-02T08:33:42;9.70;99.90
45096;DHT22;30858;51.108;8.068;2023-05-02T08:36:12;9.80;99.90
45096;DHT22;30858;51.108;8.068;2023-05-02T08:38:38;9.90;99.90
45096;DHT22;30858;51.108;8.068;2023-05-02T08:41:17;9.90;99.90
45096;DHT22;30858;51.108;8.068;2023-05-02T08:43:44;9.80;99.90
45096;DHT22;30858;51.108;8.068;2023-05-02T08:46:15;9.90;99.90
45096;DHT22;30858;51.108;8.068;2023-05-02T08:48:43;9.90;99.90
45096;DHT22;30858;51.108;8.068;2023-05-02T08:51:12;9.80;99.90
45096;DHT22;30858;51.108;8.068;2023-05-02T08:53:38;9.70;99.90
45096;DHT22;30858;51.108;8.068;2023-05-02T08:56:06;9.60;99.90
45096;DHT22;30858;51.108;8.068;2023-05-02T08:58:32;9.60;99.90
45096;DHT22;30858;51.108;8.068;2023-05-02T09:01:01;9.70;99.90
45096;DHT22;30858;51.108;8.068;2023-05-02T09:03:34;9.80;99.90
45096;DHT22;30858;51.108;8.068;2023-05-02T09:08:30;9.90;99.90
45096;DHT22;30858;51.108;8.068;2023-05-02T09:10:56;9.90;99.90
45096;DHT22;30858;51.108;8.068;2023-05-02T09:13:35;10.00;99.90
45096;DHT22;30858;51.108;8.068;2023-05-02T09:16:02;10.10;99.90
45096;DHT22;30858;51.108;8.068;2023-05-02T09:18:37;10.20;99.90
45096;DHT22;30858;51.108;8.068;2023-05-02T09:21:08;10.30;99.90
45096;DHT22;30858;51.108;8.068;2023-05-02T09:23:42;10.40;99.90
45096;DHT22;30858;51.108;8.068;2023-05-02T09:29:02;10.50;99.90
45096;DHT22;30858;51.108;8.068;2023-05-02T09:31:30;10.50;99.90
45096;DHT22;30858;51.108;8.068;2023-05-02T09:34:14;10.50;99.90
45096;DHT22;30858;51.108;8.068;2023-05-02T09:36:45;10.40;99.90
45096;DHT22;30858;51.108;8.068;2023-05-02T09:39:13;10.50;99.90
45096;DHT22;30858;51.108;8.068;2023-05-02T09:41:40;10.50;99.90
45096;DHT22;30858;51.108;8.068;2023-05-02T09:44:09;10.60;99.90
45096;DHT22;30858;51.108;8.068;2023-05-02T09:46:39;10.70;99.90
45096;DHT22;30858;51.108;8.068;2023-05-02T09:49:06;10.60;99.90
45096;DHT22;30858;51.108;8.068;2023-05-02T09:51:32;10.50;99.90
45096;DHT22;30858;51.108;8.068;2023-05-02T09:53:57;10.40;99.90
45096;DHT22;30858;51.108;8.068;2023-05-02T09:56:23;10.40;99.90
45096;DHT22;30858;51.108;8.068;2023-05-02T09:58:48;10.30;99.90
45096;DHT22;30858;51.108;8.068;2023-05-02T10:01:15;10.30;99.90
45096;DHT22;30858;51.108;8.068;2023-05-02T10:03:41;10.20;99.90
45096;DHT22;30858;51.108;8.068;2023-05-02T10:06:09;10.30;99.90
45096;DHT22;30858;51.108;8.068;2023-05-02T10:08:38;10.30;99.90
45096;DHT22;30858;51.108;8.068;2023-05-02T10:11:06;10.20;99.90
45096;DHT22;30858;51.108;8.068;2023-05-02T10:13:33;10.20;99.90
45096;DHT22;30858;51.108;8.068;2023-05-02T10:16:05;10.20;99.90
45096;DHT22;30858;51.108;8.068;2023-05-02T10:18:51;10.10;99.90
45096;DHT22;30858;51.108;8.068;2023-05-02T10:21:25;9.90;99.90
45096;DHT22;30858;51.108;8.068;2023-05-02T10:23:52;9.60;99.90
45096;DHT22;30858;51.108;8.068;2023-05-02T10:26:18;9.40;99.90
45096;DHT22;30858;51.108;8.068;2023-05-02T10:28:46;9.30;99.90
45096;DHT22;30858;51.108;8.068;2023-05-02T10:31:13;9.30;99.90
45096;DHT22;30858;51.108;8.068;2023-05-02T10:33:40;9.20;99.90
45096;DHT22;30858;51.108;8.068;2023-05-02T10:36:09;9.10;99.90
45096;DHT22;30858;51.108;8.068;2023-05-02T10:38:39;9.10;99.90
45096;DHT22;30858;51.108;8.068;2023-05-02T10:41:23;9.10;99.90
45096;DHT22;30858;51.108;8.068;2023-05-02T10:43:51;9.00;99.90
45096;DHT22;30858;51.108;8.068;2023-05-02T10:46:35;9.10;99.90
45096;DHT22;30858;51.108;8.068;2023-05-02T10:49:19;9.10;99.90
45096;DHT22;30858;51.108;8.068;2023-05-02T10:51:47;9.00;99.90
45096;DHT22;30858;51.108;8.068;2023-05-02T10:54:25;9.00;99.90
45096;DHT22;30858;51.108;8.068;2023-05-02T10:57:06;9.00;99.90
45096;DHT22;30858;51.108;8.068;2023-05-02T10:59:37;8.90;99.90
45096;DHT22;30858;51.108;8.068;2023-05-02T11:05:00;8.90;99.90
45096;DHT22;30858;51.108;8.068;2023-05-02T11:07:28;8.90;99.90
45096;DHT22;30858;51.108;8.068;2023-05-02T11:15:15;9.00;99.90
45096;DHT22;30858;51.108;8.068;2023-05-02T11:18:05;9.00;99.90
45096;DHT22;30858;51.108;8.068;2023-05-02T11:20:32;9.10;99.90
45096;DHT22;30858;51.108;8.068;2023-05-02T11:25:44;9.20;99.90
45096;DHT22;30858;51.108;8.068;2023-05-02T11:31:01;9.10;99.90
45096;DHT22;30858;51.108;8.068;2023-05-02T11:33:28;9.00;99.90
45096;DHT22;30858;51.108;8.068;2023-05-02T11:35:54;9.00;99.90
45096;DHT22;30858;51.108;8.068;2023-05-02T11:38:22;8.90;99.90
45096;DHT22;30858;51.108;8.068;2023-05-02T11:40:55;8.90;99.90
45096;DHT22;30858;51.108;8.068;2023-05-02T11:43:23;8.90;99.90
45096;DHT22;30858;51.108;8.068;2023-05-02T11:45:53;9.00;99.90
45096;DHT22;30858;51.108;8.068;2023-05-02T11:48:20;8.90;99.90
45096;DHT22;30858;51.108;8.068;2023-05-02T11:50:58;9.00;99.90
45096;DHT22;30858;51.108;8.068;2023-05-02T11:53:27;9.10;99.90
45096;DHT22;30858;51.108;8.068;2023-05-02T11:55:59;9.10;99.90
45096;DHT22;30858;51.108;8.068;2023-05-02T11:58:27;9.20;99.90
45096;DHT22;30858;51.108;8.068;2023-05-02T12:00:54;9.40;99.90
45096;DHT22;30858;51.108;8.068;2023-05-02T12:03:22;9.80;99.90
45096;DHT22;30858;51.108;8.068;2023-05-02T12:05:48;10.20;99.90
45096;DHT22;30858;51.108;8.068;2023-05-02T12:08:22;10.30;99.90
45096;DHT22;30858;51.108;8.068;2023-05-02T12:10:49;10.50;99.90
45096;DHT22;30858;51.108;8.068;2023-05-02T12:13:16;10.60;99.90
45096;DHT22;30858;51.108;8.068;2023-05-02T12:15:42;10.70;99.90
45096;DHT22;30858;51.108;8.068;2023-05-02T12:18:07;10.80;99.90
45096;DHT22;30858;51.108;8.068;2023-05-02T12:20:34;10.90;99.90
45096;DHT22;30858;51.108;8.068;2023-05-02T12:23:00;11.20;99.90
45096;DHT22;30858;51.108;8.068;2023-05-02T12:25:25;11.40;99.90
45096;DHT22;30858;51.108;8.068;2023-05-02T12:28:01;11.30;99.90
45096;DHT22;30858;51.108;8.068;2023-05-02T12:30:28;11.20;99.90
45096;DHT22;30858;51.108;8.068;2023-05-02T12:32:57;11.10;99.90
45096;DHT22;30858;51.108;8.068;2023-05-02T12:35:23;10.80;99.90
45096;DHT22;30858;51.108;8.068;2023-05-02T12:37:51;10.50;99.90
45096;DHT22;30858;51.108;8.068;2023-05-02T12:40:16;10.30;99.90
45096;DHT22;30858;51.108;8.068;2023-05-02T12:42:42;10.10;99.90
45096;DHT22;30858;51.108;8.068;2023-05-02T12:45:22;10.00;99.90
45096;DHT22;30858;51.108;8.068;2023-05-02T12:47:47;9.80;99.90
45096;DHT22;30858;51.108;8.068;2023-05-02T12:50:13;9.70;99.90
45096;DHT22;30858;51.108;8.068;2023-05-02T12:52:46;9.60;99.90
45096;DHT22;30858;51.108;8.068;2023-05-02T12:55:24;9.60;99.90
45096;DHT22;30858;51.108;8.068;2023-05-02T12:58:06;9.70;99.90
45096;DHT22;30858;51.108;8.068;2023-05-02T13:00:33;9.70;99.90
45096;DHT22;30858;51.108;8.068;2023-05-02T13:02:59;9.90;99.90
45096;DHT22;30858;51.108;8.068;2023-05-02T13:05:24;9.90;99.90
45096;DHT22;30858;51.108;8.068;2023-05-02T13:07:51;10.10;99.90
45096;DHT22;30858;51.108;8.068;2023-05-02T13:10:17;10.20;99.90
45096;DHT22;30858;51.108;8.068;2023-05-02T13:12:46;10.20;99.90
45096;DHT22;30858;51.108;8.068;2023-05-02T13:15:12;10.00;99.90
45096;DHT22;30858;51.108;8.068;2023-05-02T13:17:38;10.00;99.90
45096;DHT22;30858;51.108;8.068;2023-05-02T13:20:04;10.00;99.90
45096;DHT22;30858;51.108;8.068;2023-05-02T13:22:30;10.10;99.90
45096;DHT22;30858;51.108;8.068;2023-05-02T13:24:55;10.10;99.90
45096;DHT22;30858;51.108;8.068;2023-05-02T13:27:24;10.30;99.90
45096;DHT22;30858;51.108;8.068;2023-05-02T13:29:51;10.40;99.90
45096;DHT22;30858;51.108;8.068;2023-05-02T13:32:17;10.60;99.90
45096;DHT22;30858;51.108;8.068;2023-05-02T13:34:43;10.40;99.90
45096;DHT22;30858;51.108;8.068;2023-05-02T13:37:09;10.30;99.90
45096;DHT22;30858;51.108;8.068;2023-05-02T13:39:35;10.40;99.90
45096;DHT22;30858;51.108;8.068;2023-05-02T13:42:01;10.40;99.90
45096;DHT22;30858;51.108;8.068;2023-05-02T13:44:27;10.60;99.90
45096;DHT22;30858;51.108;8.068;2023-05-02T13:46:53;10.50;99.90
45096;DHT22;30858;51.108;8.068;2023-05-02T13:49:19;10.50;99.90
45096;DHT22;30858;51.108;8.068;2023-05-02T13:51:44;10.60;99.90
45096;DHT22;30858;51.108;8.068;2023-05-02T13:54:10;10.50;99.90
45096;DHT22;30858;51.108;8.068;2023-05-02T13:56:35;10.60;99.90
45096;DHT22;30858;51.108;8.068;2023-05-02T13:59:01;10.70;99.90
45096;DHT22;30858;51.108;8.068;2023-05-02T14:01:27;10.90;99.90
45096;DHT22;30858;51.108;8.068;2023-05-02T14:03:52;11.10;99.90
45096;DHT22;30858;51.108;8.068;2023-05-02T14:06:18;11.00;99.90
45096;DHT22;30858;51.108;8.068;2023-05-02T14:08:43;10.70;99.90
45096;DHT22;30858;51.108;8.068;2023-05-02T14:11:10;11.00;99.90
45096;DHT22;30858;51.108;8.068;2023-05-02T14:13:35;11.10;99.90
45096;DHT22;30858;51.108;8.068;2023-05-02T14:16:01;11.50;99.90
45096;DHT22;30858;51.108;8.068;2023-05-02T14:18:26;11.60;99.90
45096;DHT22;30858;51.108;8.068;2023-05-02T14:20:52;11.80;99.90
45096;DHT22;30858;51.108;8.068;2023-05-02T14:23:17;11.80;99.90
45096;DHT22;30858;51.108;8.068;2023-05-02T14:25:43;11.50;99.90
45096;DHT22;30858;51.108;8.068;2023-05-02T14:28:08;11.60;99.90
45096;DHT22;30858;51.108;8.068;2023-05-02T14:30:34;11.30;99.90
45096;DHT22;30858;51.108;8.068;2023-05-02T14:33:00;11.40;99.90
45096;DHT22;30858;51.108;8.068;2023-05-02T14:35:25;11.30;99.90
45096;DHT22;30858;51.108;8.068;2023-05-02T14:37:51;11.50;99.90
45096;DHT22;30858;51.108;8.068;2023-05-02T14:40:16;11.50;99.90
45096;DHT22;30858;51.108;8.068;2023-05-02T14:42:43;11.40;99.90
45096;DHT22;30858;51.108;8.068;2023-05-02T14:45:09;11.20;99.90
45096;DHT22;30858;51.108;8.068;2023-05-02T14:47:34;11.30;99.90
45096;DHT22;30858;51.108;8.068;2023-05-02T14:50:02;11.40;99.90
45096;DHT22;30858;51.108;8.068;2023-05-02T14:52:27;11.60;99.90
45096;DHT22;30858;51.108;8.068;2023-05-02T14:54:53;11.60;99.90
45096;DHT22;30858;51.108;8.068;2023-05-02T14:57:18;11.70;99.90
45096;DHT22;30858;51.108;8.068;2023-05-02T14:59:44;11.60;99.90
45096;DHT22;30858;51.108;8.068;2023-05-02T15:02:10;11.60;99.90
45096;DHT22;30858;51.108;8.068;2023-05-02T15:04:35;11.70;99.90
45096;DHT22;30858;51.108;8.068;2023-05-02T15:07:02;11.90;99.90
45096;DHT22;30858;51.108;8.068;2023-05-02T15:09:28;11.70;99.90
45096;DHT22;30858;51.108;8.068;2023-05-02T15:11:54;11.60;99.90
45096;DHT22;30858;51.108;8.068;2023-05-02T15:14:20;11.40;99.90
45096;DHT22;30858;51.108;8.068;2023-05-02T15:16:45;11.50;99.90
45096;DHT22;30858;51.108;8.068;2023-05-02T15:19:11;11.70;99.90
45096;DHT22;30858;51.108;8.068;2023-05-02T15:21:36;11.70;99.90
45096;DHT22;30858;51.108;8.068;2023-05-02T15:24:02;11.50;99.90
45096;DHT22;30858;51.108;8.068;2023-05-02T15:26:28;11.10;99.90
45096;DHT22;30858;51.108;8.068;2023-05-02T15:28:54;11.10;99.90
45096;DHT22;30858;51.108;8.068;2023-05-02T15:31:20;10.90;99.90
45096;DHT22;30858;51.108;8.068;2023-05-02T15:33:45;11.00;99.90
45096;DHT22;30858;51.108;8.068;2023-05-02T15:36:11;10.90;99.90
45096;DHT22;30858;51.108;8.068;2023-05-02T15:38:37;11.10;99.90
45096;DHT22;30858;51.108;8.068;2023-05-02T15:41:07;11.50;99.90
45096;DHT22;30858;51.108;8.068;2023-05-02T15:43:34;11.90;99.90
45096;DHT22;30858;51.108;8.068;2023-05-02T15:46:00;12.80;99.90
45096;DHT22;30858;51.108;8.068;2023-05-02T15:48:30;13.50;99.90
45096;DHT22;30858;51.108;8.068;2023-05-02T15:50:57;14.30;99.90
45096;DHT22;30858;51.108;8.068;2023-05-02T15:53:23;14.10;99.90
45096;DHT22;30858;51.108;8.068;2023-05-02T15:55:50;13.90;99.90
45096;DHT22;30858;51.108;8.068;2023-05-02T15:58:17;13.40;99.90
45096;DHT22;30858;51.108;8.068;2023-05-02T16:00:43;12.40;99.90
45096;DHT22;30858;51.108;8.068;2023-05-02T16:03:09;12.20;99.90
45096;DHT22;30858;51.108;8.068;2023-05-02T16:05:36;11.90;99.90
45096;DHT22;30858;51.108;8.068;2023-05-02T16:08:02;11.40;99.90
45096;DHT22;30858;51.108;8.068;2023-05-02T16:10:28;11.50;99.90
45096;DHT22;30858;51.108;8.068;2023-05-02T16:12:54;11.90;99.90
45096;DHT22;30858;51.108;8.068;2023-05-02T16:15:20;12.10;99.90